createdAt,value
2019-02-04T00:05:05.406Z,99.993896
2019-02-04T00:10:28.265Z,99.993896
2019-02-04T00:15:51.913Z,99.993896
2019-02-04T00:21:14.882Z,99.993896
2019-02-04T00:26:37.638Z,99.993896
2019-02-04T00:32:01.565Z,99.993896
2019-02-04T00:37:24.286Z,99.993896
2019-02-04T00:42:46.924Z,99.993896
2019-02-04T00:48:09.610Z,99.993896
2019-02-04T00:53:32.578Z,99.993896
2019-02-04T00:58:55.440Z,99.993896
2019-02-04T01:04:18.307Z,99.993896
2019-02-04T01:09:41.036Z,99.993896
2019-02-04T01:15:03.816Z,99.993896
2019-02-04T01:20:26.522Z,99.993896
2019-02-04T01:25:49.171Z,99.993896
2019-02-04T01:31:11.880Z,99.993896
2019-02-04T01:36:34.855Z,99.993896
2019-02-04T01:41:57.889Z,99.993896
2019-02-04T01:47:21.476Z,99.993896
2019-02-04T01:52:44.221Z,99.993896
2019-02-04T01:58:06.898Z,99.993896
2019-02-04T02:03:29.708Z,99.993896
2019-02-04T02:08:52.543Z,99.993896
2019-02-04T02:14:15.629Z,99.993896
2019-02-04T02:19:38.420Z,99.993896
2019-02-04T02:25:01.818Z,99.993896
2019-02-04T02:30:24.392Z,99.993896
2019-02-04T02:35:47.145Z,99.993896
2019-02-04T02:41:09.805Z,99.993896
2019-02-04T02:46:32.542Z,99.993896
2019-02-04T02:51:55.370Z,99.993896
2019-02-04T02:57:18.554Z,99.993896
2019-02-04T03:02:41.562Z,99.993896
2019-02-04T03:08:04.374Z,99.993896
2019-02-04T03:13:27.099Z,99.993896
2019-02-04T03:18:50.004Z,99.993896
2019-02-04T03:24:13.164Z,99.993896
2019-02-04T03:29:35.956Z,99.993896
2019-02-04T03:34:58.634Z,99.993896
2019-02-04T03:40:22.114Z,99.993896
2019-02-04T03:45:44.987Z,99.993896
2019-02-04T03:51:07.949Z,99.993896
2019-02-04T03:56:30.566Z,99.993896
2019-02-04T04:01:53.387Z,99.993896
2019-02-04T04:07:17.146Z,99.993896
2019-02-04T04:12:39.920Z,99.993896
2019-02-04T04:18:03.327Z,99.993896
2019-02-04T04:23:27.128Z,99.993896
2019-02-04T04:28:50.658Z,99.993896
2019-02-04T04:34:13.476Z,99.993896
2019-02-04T04:39:36.323Z,99.993896
2019-02-04T04:44:59.049Z,99.993896
2019-02-04T04:50:22.058Z,99.993896
2019-02-04T04:55:44.768Z,99.993896
2019-02-04T05:01:07.580Z,99.993896
2019-02-04T05:06:30.500Z,99.993896
2019-02-04T05:11:53.310Z,99.993896
2019-02-04T05:17:17.127Z,99.993896
2019-02-04T05:22:40.477Z,99.993896
2019-02-04T05:28:03.831Z,99.993896
2019-02-04T05:33:26.460Z,99.993896
2019-02-04T05:38:49.153Z,99.993896
2019-02-04T05:44:12.279Z,99.993896
2019-02-04T05:49:44.406Z,99.993896
2019-02-04T05:55:07.352Z,99.993896
2019-02-04T06:00:41.506Z,99.993896
2019-02-04T06:06:16.578Z,99.993896
2019-02-04T06:11:49.174Z,99.993896
2019-02-04T06:17:12.099Z,99.993896
2019-02-04T06:22:34.910Z,99.993896
2019-02-04T06:28:06.808Z,99.993896
2019-02-04T06:33:39.239Z,99.993896
2019-02-04T06:39:11.096Z,99.993896
2019-02-04T06:44:33.880Z,99.993896
2019-02-04T06:49:56.839Z,99.993896
2019-02-04T06:55:29.355Z,99.993896
2019-02-04T07:01:04.464Z,99.993896
2019-02-04T07:06:39.205Z,99.993896
2019-02-04T07:12:02.092Z,99.993896
2019-02-04T07:17:34.674Z,99.993896
2019-02-04T07:23:06.515Z,99.993896
2019-02-04T07:28:40.139Z,99.993896
2019-02-04T07:34:13.013Z,99.993896
2019-02-04T07:39:45.669Z,99.993896
2019-02-04T07:45:08.692Z,99.993896
2019-02-04T07:50:40.987Z,99.993896
2019-02-04T07:56:14.967Z,99.993896
2019-02-04T08:01:47.174Z,99.993896
2019-02-04T08:07:19.770Z,99.993896
2019-02-04T08:13:00.789Z,99.993896
2019-02-04T08:18:46.871Z,99.993896
2019-02-04T08:24:21.724Z,99.993896
2019-02-04T08:29:54.880Z,99.993896
2019-02-04T08:35:28.719Z,99.993896
2019-02-04T08:41:02.057Z,99.993896
2019-02-04T08:46:34.674Z,99.993896
2019-02-04T08:52:07.792Z,99.993896
2019-02-04T08:57:40.358Z,99.993896
2019-02-04T09:03:12.115Z,99.993896
2019-02-04T09:08:43.809Z,99.993896
2019-02-04T09:14:15.456Z,99.993896
2019-02-04T09:19:47.697Z,99.621582
2019-02-04T09:25:10.501Z,99.09668
2019-02-04T09:30:33.295Z,98.217773
2019-02-04T09:35:56.921Z,96.862793
2019-02-04T09:41:19.603Z,96.923828
2019-02-04T09:46:42.519Z,95.983887
2019-02-04T09:52:05.333Z,94.897461
2019-02-04T09:57:28.545Z,94.689941
2019-02-04T10:02:51.277Z,92.181396
2019-02-04T10:08:13.962Z,93.499756
2019-02-04T10:13:37.626Z,92.871094
2019-02-04T10:19:01.187Z,91.827393
2019-02-04T10:24:24.648Z,90.85083
2019-02-04T10:29:47.308Z,90.014648
2019-02-04T10:35:16.733Z,89.39209
2019-02-04T10:40:34.053Z,89.141846
2019-02-04T10:45:56.958Z,87.475586
2019-02-04T10:51:21.791Z,87.017822
2019-02-04T10:56:45.731Z,86.187744
2019-02-04T11:02:11.331Z,85.211182
2019-02-04T11:07:31.363Z,86.004639
2019-02-04T11:12:54.292Z,84.716797
2019-02-04T11:18:17.033Z,81.5979
2019-02-04T11:23:39.876Z,81.25
2019-02-04T11:29:02.706Z,80.731201
2019-02-04T11:34:25.525Z,79.23584
2019-02-04T11:39:48.171Z,79.614258
2019-02-04T11:45:10.962Z,80.13916
2019-02-04T11:50:34.163Z,78.057861
2019-02-04T11:55:57.287Z,78.161621
2019-02-04T12:01:20.140Z,75.952148
2019-02-04T12:06:43.129Z,76.782227
2019-02-04T12:12:06.134Z,75.811768
2019-02-04T12:17:28.800Z,74.77417
2019-02-04T12:22:51.479Z,73.077393
2019-02-04T12:28:14.482Z,73.254395
2019-02-04T12:33:38.030Z,72.320557
2019-02-04T12:39:01.227Z,72.357178
2019-02-04T12:44:24.816Z,72.460938
2019-02-04T12:49:47.570Z,70.97168
2019-02-04T12:55:10.537Z,70.97168
2019-02-04T13:00:32.727Z,70.147705
2019-02-04T13:05:56.203Z,70.111084
2019-02-04T13:11:18.870Z,69.628906
2019-02-04T13:16:42.322Z,71.21582
2019-02-04T13:22:05.798Z,70.489502
2019-02-04T13:27:28.547Z,70.281982
2019-02-04T13:32:51.257Z,69.897461
2019-02-04T13:38:15.699Z,71.734619
2019-02-04T13:43:38.769Z,70.904541
2019-02-04T13:49:01.938Z,70.623779
2019-02-04T13:54:24.644Z,70.623779
2019-02-04T13:59:47.636Z,70.623779
2019-02-04T14:05:10.344Z,70.727539
2019-02-04T14:10:33.046Z,70.727539
2019-02-04T14:15:55.752Z,70.6604
2019-02-04T14:21:18.516Z,70.245361
2019-02-04T14:26:41.406Z,70.349121
2019-02-04T14:32:04.089Z,70.556641
2019-02-04T14:37:26.872Z,70.349121
2019-02-04T14:42:49.574Z,71.002197
2019-02-04T14:48:12.787Z,71.002197
2019-02-04T14:53:35.482Z,70.483398
2019-02-04T14:58:58.236Z,71.313477
2019-02-04T15:04:20.925Z,70.794678
2019-02-04T15:09:43.694Z,71.313477
2019-02-04T15:15:06.453Z,72.454834
2019-02-04T15:20:29.107Z,72.589111
2019-02-04T15:25:51.826Z,72.485352
2019-02-04T15:31:14.627Z,73.217773
2019-02-04T15:36:37.325Z,72.900391
2019-02-04T15:42:00.061Z,75.115967
2019-02-04T15:47:23.648Z,75.012207
2019-02-04T15:52:46.621Z,74.700928
2019-02-04T15:58:09.729Z,74.182129
2019-02-04T16:03:32.489Z,73.736572
2019-02-04T16:08:55.295Z,73.944092
2019-02-04T16:14:19.297Z,73.974609
2019-02-04T16:19:42.526Z,73.040771
2019-02-04T16:25:05.207Z,72.277832
2019-02-04T16:30:27.897Z,72.589111
2019-02-04T16:35:50.671Z,71.966553
2019-02-04T16:41:13.376Z,71.136475
2019-02-04T16:46:36.785Z,70.825195
2019-02-04T16:51:59.542Z,69.683838
2019-02-04T16:57:22.803Z,70.617676
2019-02-04T17:02:45.680Z,70.617676
2019-02-04T17:08:08.696Z,71.136475
2019-02-04T17:13:33.440Z,71.032715
2019-02-04T17:18:56.334Z,71.136475
2019-02-04T17:24:19.297Z,72.485352
2019-02-04T17:29:42.005Z,72.796631
2019-02-04T17:35:05.938Z,74.597168
2019-02-04T17:40:28.609Z,74.597168
2019-02-04T17:45:51.514Z,74.285889
2019-02-04T17:51:14.414Z,75.537109
2019-02-04T17:56:37.176Z,73.87085
2019-02-04T18:02:00.077Z,72.833252
2019-02-04T18:07:23.010Z,72.625732
2019-02-04T18:12:46.985Z,71.795654
2019-02-04T18:18:09.796Z,70.336914
2019-02-04T18:23:32.486Z,69.268799
2019-02-04T18:28:56.218Z,68.95752
2019-02-04T18:34:19.851Z,67.089844
2019-02-04T18:39:43.061Z,67.608643
2019-02-04T18:45:05.881Z,68.127441
2019-02-04T18:50:28.714Z,67.089844
2019-02-04T18:55:51.566Z,66.674805
2019-02-04T19:01:14.679Z,67.993164
2019-02-04T19:06:47.292Z,67.889404
2019-02-04T19:12:01.629Z,70.617676
2019-02-04T19:17:24.298Z,69.580078
2019-02-04T19:22:48.119Z,69.995117
2019-02-04T19:28:20.099Z,69.995117
2019-02-04T19:33:42.880Z,69.787598
2019-02-04T19:39:05.718Z,69.891357
2019-02-04T19:44:28.603Z,70.410156
2019-02-04T19:49:51.392Z,71.032715
2019-02-04T19:55:14.138Z,70.928955
2019-02-04T20:00:36.772Z,71.551514
2019-02-04T20:06:00.873Z,72.277832
2019-02-04T20:11:23.630Z,73.217773
2019-02-04T20:16:46.357Z,73.248291
2019-02-04T20:22:09.046Z,74.493408
2019-02-04T20:27:31.786Z,73.352051
2019-02-04T20:32:54.443Z,71.966553
2019-02-04T20:38:18.097Z,72.692871
2019-02-04T20:43:41.907Z,72.070312
2019-02-04T20:49:04.865Z,71.343994
2019-02-04T20:54:27.735Z,72.900391
2019-02-04T20:59:51.508Z,73.114014
2019-02-04T21:05:14.778Z,72.900391
2019-02-04T21:10:37.680Z,72.381592
2019-02-04T21:16:00.472Z,72.796631
2019-02-04T21:21:23.204Z,72.900391
2019-02-04T21:26:45.952Z,74.151611
2019-02-04T21:32:08.925Z,74.87793
2019-02-04T21:37:31.659Z,75.500488
2019-02-04T21:42:54.618Z,77.197266
2019-02-04T21:48:17.601Z,77.301025
2019-02-04T21:53:40.280Z,78.027344
2019-02-04T21:59:03.367Z,78.063965
2019-02-04T22:04:26.283Z,79.47998
2019-02-04T22:09:48.991Z,80.352783
2019-02-04T22:15:12.462Z,82.116699
2019-02-04T22:20:35.095Z,82.4646
2019-02-04T22:25:57.772Z,83.093262
2019-02-04T22:31:20.562Z,83.197021
2019-02-04T22:36:43.441Z,82.989502
2019-02-04T22:42:06.196Z,83.612061
2019-02-04T22:47:29.597Z,84.960938
2019-02-04T22:52:52.351Z,86.981201
2019-02-04T22:58:16.068Z,87.39624
2019-02-04T23:03:39.641Z,88.580322
2019-02-04T23:09:02.671Z,89.935303
2019-02-04T23:14:25.468Z,90.9729
2019-02-04T23:19:48.242Z,92.266846
2019-02-04T23:25:11.885Z,92.785645
2019-02-04T23:30:34.611Z,93.933105
2019-02-04T23:35:57.296Z,94.598389
2019-02-04T23:41:20.081Z,95.227051
2019-02-04T23:46:42.789Z,95.43457
2019-02-04T23:52:05.578Z,95.019531
2019-02-04T23:57:28.324Z,94.348145
